Time;durP1;ratioP1;P1;durP2;ratioP2;P2;SDS_P1;SDS_P2;PMS_P1;PMS_P2;Temp;Humidity;BMP_temperature;BMP_pressure;BME280_temperature;BME280_humidity;BME280_pressure;Samples;Min_cycle;Max_cycle;Signal;HPM_P1;HPM_P2
2022/09/21 00:02:05;;;;;;;12.77;5.33;;;7.30;99.90;;;;;;5051660;28;20448;-46
2022/09/21 00:04:30;;;;;;;10.80;4.77;;;7.30;99.90;;;;;;5037860;28;20553;-45
2022/09/21 00:06:56;;;;;;;11.73;4.83;;;7.20;99.90;;;;;;5052234;28;20185;-49
2022/09/21 00:09:22;;;;;;;11.10;5.40;;;7.20;99.90;;;;;;5052483;28;20190;-46
2022/09/21 00:11:47;;;;;;;12.50;4.33;;;7.20;99.90;;;;;;5050993;28;20237;-45
2022/09/21 00:14:13;;;;;;;13.57;5.17;;;7.20;99.90;;;;;;5039615;28;20218;-45
2022/09/21 00:16:41;;;;;;;14.87;5.10;;;7.20;99.90;;;;;;5036907;28;20194;-45
2022/09/21 00:19:07;;;;;;;18.90;5.60;;;7.20;99.90;;;;;;5053992;28;20439;-46
2022/09/21 00:21:33;;;;;;;10.30;4.30;;;7.20;99.90;;;;;;5046591;28;20923;-45
2022/09/21 00:24:01;;;;;;;7.60;4.73;;;7.20;99.90;;;;;;5032524;28;21221;-45
2022/09/21 00:26:27;;;;;;;10.27;4.90;;;7.20;99.90;;;;;;5047851;28;20512;-45
2022/09/21 00:28:55;;;;;;;15.77;4.83;;;7.20;99.90;;;;;;5052263;28;20486;-45
2022/09/21 00:31:21;;;;;;;11.93;4.93;;;7.20;99.90;;;;;;5031517;28;20210;-45
2022/09/21 00:33:46;;;;;;;9.00;4.80;;;7.30;99.90;;;;;;5036636;28;20456;-45
2022/09/21 00:36:17;;;;;;;11.97;5.03;;;7.30;99.90;;;;;;5044733;28;20645;-45
2022/09/21 00:38:54;;;;;;;13.20;5.10;;;7.20;99.90;;;;;;5047861;28;20187;-46
2022/09/21 00:41:27;;;;;;;26.03;5.53;;;7.20;99.90;;;;;;5045420;28;20449;-45
2022/09/21 00:44:21;;;;;;;10.47;4.80;;;7.20;99.90;;;;;;5046776;28;20472;-45
2022/09/21 00:46:49;;;;;;;15.37;4.80;;;7.10;99.90;;;;;;5033465;28;20444;-45
2022/09/21 00:49:15;;;;;;;10.33;4.93;;;7.10;99.90;;;;;;5049045;28;20535;-45
2022/09/21 00:51:42;;;;;;;16.57;5.50;;;7.10;99.90;;;;;;5050035;28;20469;-45
2022/09/21 00:54:14;;;;;;;12.50;4.80;;;7.10;99.90;;;;;;5049475;28;20445;-45
2022/09/21 00:56:42;;;;;;;9.00;4.93;;;7.00;99.90;;;;;;5042451;28;20452;-45
2022/09/21 00:59:08;;;;;;;10.63;5.40;;;7.00;99.90;;;;;;5050787;28;20433;-45
2022/09/21 01:01:37;;;;;;;9.63;4.90;;;7.00;99.90;;;;;;5050688;28;20467;-46
2022/09/21 01:04:05;;;;;;;11.40;4.73;;;6.90;99.90;;;;;;5049952;28;20863;-45
2022/09/21 01:06:33;;;;;;;11.50;4.30;;;6.90;99.90;;;;;;5042184;28;20894;-45
2022/09/21 01:08:59;;;;;;;15.40;5.27;;;6.90;99.90;;;;;;5041238;28;20449;-45
2022/09/21 01:11:33;;;;;;;16.53;5.20;;;6.90;99.90;;;;;;5035168;28;20534;-45
2022/09/21 01:14:07;;;;;;;13.50;4.90;;;6.90;99.90;;;;;;5050912;28;20449;-45
2022/09/21 01:17:01;;;;;;;9.00;4.83;;;6.90;99.90;;;;;;5038406;28;21107;-45
2022/09/21 01:19:52;;;;;;;12.07;5.67;;;6.80;99.90;;;;;;5031173;28;20410;-45
2022/09/21 01:22:29;;;;;;;13.43;4.50;;;6.80;99.90;;;;;;5033717;28;20436;-45
2022/09/21 01:25:10;;;;;;;16.30;6.27;;;6.80;99.90;;;;;;5049872;28;20488;-46
2022/09/21 01:27:42;;;;;;;9.70;6.17;;;6.70;99.90;;;;;;5030526;28;20572;-47
2022/09/21 01:30:14;;;;;;;17.07;6.27;;;6.70;99.90;;;;;;5040296;28;20564;-45
2022/09/21 01:32:45;;;;;;;14.43;6.57;;;6.70;99.90;;;;;;5030198;28;20505;-45
2022/09/21 01:35:17;;;;;;;10.80;6.40;;;6.70;99.90;;;;;;5040143;28;20443;-46
2022/09/21 01:38:12;;;;;;;17.23;6.17;;;6.70;99.90;;;;;;5032110;28;20449;-45
2022/09/21 01:40:43;;;;;;;15.70;6.37;;;6.80;99.90;;;;;;5048507;28;20452;-45
2022/09/21 01:43:13;;;;;;;13.80;7.27;;;6.80;99.90;;;;;;5047683;28;20455;-46
2022/09/21 01:45:45;;;;;;;14.33;6.20;;;6.80;99.90;;;;;;5033926;28;20445;-45
2022/09/21 01:48:12;;;;;;;16.87;6.57;;;6.80;99.90;;;;;;5048776;28;20441;-45
2022/09/21 01:50:43;;;;;;;10.83;5.87;;;6.80;99.90;;;;;;5049558;28;20494;-45
2022/09/21 01:53:22;;;;;;;9.93;5.67;;;6.80;99.90;;;;;;5036647;28;20441;-45
2022/09/21 01:56:14;;;;;;;11.90;5.90;;;6.70;99.90;;;;;;5043166;28;20448;-45
2022/09/21 01:59:12;;;;;;;11.07;5.90;;;6.60;99.90;;;;;;5029299;28;20461;-45
2022/09/21 02:01:44;;;;;;;12.27;5.80;;;6.60;99.90;;;;;;5042418;28;20472;-45
2022/09/21 02:04:12;;;;;;;11.63;5.80;;;6.60;99.90;;;;;;5045587;28;20444;-46
2022/09/21 02:06:40;;;;;;;9.20;5.53;;;6.60;99.90;;;;;;5033758;28;20890;-45
2022/09/21 02:09:07;;;;;;;15.03;6.10;;;6.60;99.90;;;;;;5050061;28;20530;-46
2022/09/21 02:11:37;;;;;;;12.30;6.13;;;6.50;99.90;;;;;;5046289;28;20572;-46
2022/09/21 02:14:07;;;;;;;19.23;6.43;;;6.50;99.90;;;;;;5038473;28;20830;-46
2022/09/21 02:16:35;;;;;;;13.90;6.17;;;6.50;99.90;;;;;;5048383;28;21126;-47
2022/09/21 02:19:25;;;;;;;9.50;6.27;;;6.50;99.90;;;;;;5048882;28;20920;-47
2022/09/21 02:22:33;;;;;;;16.60;6.63;;;6.40;99.90;;;;;;5049087;28;20452;-48
2022/09/21 02:25:30;;;;;;;16.23;5.77;;;6.40;99.90;;;;;;5045853;28;21016;-56
2022/09/21 02:28:05;;;;;;;12.20;6.67;;;6.50;99.90;;;;;;5022390;28;20497;-48
2022/09/21 02:30:34;;;;;;;8.77;5.80;;;6.40;99.90;;;;;;5048918;28;20493;-47
2022/09/21 02:33:16;;;;;;;12.50;6.67;;;6.40;99.90;;;;;;5050019;28;20510;-47
2022/09/21 02:35:58;;;;;;;12.20;6.60;;;6.40;99.90;;;;;;5039440;28;20441;-47
2022/09/21 02:38:45;;;;;;;27.20;6.70;;;6.40;99.90;;;;;;5032868;28;20520;-49
2022/09/21 02:41:18;;;;;;;15.47;6.13;;;6.40;99.90;;;;;;5049439;28;20444;-47
2022/09/21 02:43:56;;;;;;;16.67;6.63;;;6.40;99.90;;;;;;5048294;28;20480;-47
2022/09/21 02:46:36;;;;;;;12.20;5.83;;;6.30;99.90;;;;;;5038023;28;20445;-48
2022/09/21 02:49:08;;;;;;;15.63;7.27;;;6.30;99.90;;;;;;5040112;28;20999;-47
2022/09/21 02:51:43;;;;;;;19.50;6.93;;;6.30;99.90;;;;;;5044765;28;20974;-47
2022/09/21 02:54:12;;;;;;;11.33;5.90;;;6.30;99.90;;;;;;5035130;28;20432;-47
2022/09/21 02:56:41;;;;;;;16.70;6.13;;;6.30;99.90;;;;;;5032151;28;20441;-47
2022/09/21 02:59:07;;;;;;;16.20;7.37;;;6.30;1.00;;;;;;5031924;28;20487;-47
2022/09/21 03:01:33;;;;;;;16.93;6.87;;;6.30;1.00;;;;;;5034107;28;20406;-47
2022/09/21 03:03:59;;;;;;;12.67;7.17;;;6.30;1.00;;;;;;5035963;28;20195;-48
2022/09/21 03:06:25;;;;;;;13.80;6.07;;;6.30;1.00;;;;;;5049861;28;20452;-47
2022/09/21 03:08:51;;;;;;;13.50;6.30;;;6.30;1.00;;;;;;5051663;28;20194;-47
2022/09/21 03:11:18;;;;;;;8.97;6.67;;;6.30;1.00;;;;;;5034719;28;20218;-47
2022/09/21 03:13:44;;;;;;;15.87;6.90;;;6.30;1.00;;;;;;5044276;28;20523;-47
2022/09/21 03:16:12;;;;;;;14.43;7.27;;;6.30;1.00;;;;;;5050760;28;20449;-47
2022/09/21 03:18:39;;;;;;;16.13;7.07;;;6.30;1.00;;;;;;5053313;28;20507;-47
2022/09/21 03:21:05;;;;;;;13.17;7.57;;;6.40;1.00;;;;;;5053420;28;20425;-47
2022/09/21 03:23:30;;;;;;;14.77;6.77;;;6.40;1.00;;;;;;5053147;28;20416;-47
2022/09/21 03:25:56;;;;;;;10.17;6.60;;;6.40;1.00;;;;;;5053600;28;20526;-47
2022/09/21 03:28:22;;;;;;;12.40;7.03;;;6.40;1.00;;;;;;5052823;28;20237;-48
2022/09/21 03:30:49;;;;;;;14.60;6.60;;;6.30;1.00;;;;;;5033319;28;20223;-47
2022/09/21 03:33:16;;;;;;;18.87;7.13;;;6.30;1.00;;;;;;5039567;28;20805;-46
2022/09/21 03:35:42;;;;;;;17.93;6.90;;;6.30;1.00;;;;;;5053419;28;20421;-47
2022/09/21 03:38:08;;;;;;;17.00;7.20;;;6.20;1.00;;;;;;5053107;28;20475;-47
2022/09/21 03:40:34;;;;;;;18.07;7.53;;;6.20;1.00;;;;;;5053247;28;20883;-48
2022/09/21 03:42:59;;;;;;;13.07;6.47;;;6.20;1.00;;;;;;5067661;28;20190;-48
2022/09/21 03:45:26;;;;;;;12.87;6.40;;;6.20;1.00;;;;;;5035892;28;20445;-47
2022/09/21 03:47:57;;;;;;;10.23;6.40;;;6.20;1.00;;;;;;5041399;28;20205;-47
2022/09/21 03:50:25;;;;;;;12.03;6.17;;;6.10;1.00;;;;;;5053059;28;20491;-47
2022/09/21 03:52:51;;;;;;;8.83;6.57;;;6.10;1.00;;;;;;5053274;28;20401;-47
2022/09/21 03:55:16;;;;;;;10.93;6.03;;;6.10;1.00;;;;;;5040626;28;20445;-47
2022/09/21 03:57:42;;;;;;;11.13;6.97;;;6.10;1.00;;;;;;5034432;28;20242;-47
2022/09/21 04:00:10;;;;;;;8.40;5.37;;;6.20;1.00;;;;;;5042755;28;20253;-47
2022/09/21 04:02:38;;;;;;;8.73;6.20;;;6.10;1.00;;;;;;5034855;28;20273;-48
2022/09/21 04:05:05;;;;;;;7.93;5.77;;;6.10;1.00;;;;;;5045440;28;20896;-46
2022/09/21 04:07:34;;;;;;;11.20;6.03;;;6.20;1.00;;;;;;5032735;28;20425;-47
2022/09/21 04:10:02;;;;;;;12.23;7.10;;;6.20;1.00;;;;;;5032219;28;20853;-50
2022/09/21 04:12:28;;;;;;;11.10;6.57;;;6.20;1.00;;;;;;5031103;28;20847;-47
2022/09/21 04:14:53;;;;;;;16.97;6.50;;;6.20;1.00;;;;;;5036608;28;20484;-47
2022/09/21 04:17:19;;;;;;;16.10;6.90;;;6.20;1.00;;;;;;5032658;28;20610;-46
2022/09/21 04:19:45;;;;;;;13.60;7.13;;;6.20;1.00;;;;;;5032541;28;20167;-46
2022/09/21 04:22:11;;;;;;;13.07;7.40;;;6.30;1.00;;;;;;5033259;28;20195;-47
2022/09/21 04:24:39;;;;;;;19.80;8.30;;;6.40;1.00;;;;;;5031385;28;20261;-47
2022/09/21 04:27:06;;;;;;;22.77;8.23;;;6.40;1.00;;;;;;5032052;28;20900;-46
2022/09/21 04:29:32;;;;;;;13.93;7.33;;;6.40;1.00;;;;;;5048640;28;20841;-47
2022/09/21 04:31:57;;;;;;;19.80;8.60;;;6.40;1.00;;;;;;5053406;28;20537;-47
2022/09/21 04:34:23;;;;;;;15.77;8.90;;;6.40;1.00;;;;;;5044080;28;20608;-47
2022/09/21 04:36:48;;;;;;;13.97;8.07;;;6.40;1.00;;;;;;5052336;28;20579;-47
2022/09/21 04:39:14;;;;;;;22.53;8.60;;;6.30;1.00;;;;;;5052052;28;20605;-46
2022/09/21 04:41:40;;;;;;;22.80;8.20;;;6.30;1.00;;;;;;5042195;28;20580;-47
2022/09/21 04:44:06;;;;;;;15.43;7.43;;;6.30;1.00;;;;;;5032028;28;20171;-47
2022/09/21 04:46:32;;;;;;;12.20;7.57;;;6.30;1.00;;;;;;5033044;28;20445;-47
2022/09/21 04:48:58;;;;;;;17.43;7.00;;;6.20;1.00;;;;;;5050956;28;20181;-47
2022/09/21 04:51:23;;;;;;;19.63;8.67;;;6.20;1.00;;;;;;5072028;28;20217;-47
2022/09/21 04:53:50;;;;;;;21.30;8.37;;;6.20;1.00;;;;;;5058832;28;20182;-47
2022/09/21 04:56:16;;;;;;;21.33;8.70;;;6.20;1.00;;;;;;5051362;28;20284;-47
2022/09/21 04:58:42;;;;;;;16.30;8.87;;;6.20;1.00;;;;;;5050307;28;20413;-47
2022/09/21 05:01:07;;;;;;;21.30;9.30;;;6.20;1.00;;;;;;5036060;28;20473;-47
2022/09/21 05:03:33;;;;;;;20.63;10.33;;;6.20;1.00;;;;;;5042666;28;20464;-47
2022/09/21 05:05:59;;;;;;;14.30;9.17;;;6.20;1.00;;;;;;5052289;28;20174;-47
2022/09/21 05:11:14;;;;;;;17.37;9.60;;;6.20;1.00;;;;;;5051097;28;20280;-47
2022/09/21 05:13:40;;;;;;;20.47;9.93;;;6.20;1.00;;;;;;5051635;28;21165;-47
2022/09/21 05:16:07;;;;;;;16.60;9.90;;;6.20;1.00;;;;;;5051452;28;20902;-47
2022/09/21 05:18:32;;;;;;;14.40;7.97;;;6.10;1.00;;;;;;5041055;28;20439;-47
2022/09/21 05:21:00;;;;;;;15.73;9.33;;;6.10;1.00;;;;;;5050728;28;20401;-47
2022/09/21 05:23:28;;;;;;;20.50;9.33;;;6.10;1.00;;;;;;5056397;28;20193;-47
2022/09/21 05:25:55;;;;;;;23.77;9.70;;;6.10;1.00;;;;;;5062339;28;20559;-47
2022/09/21 05:28:21;;;;;;;18.60;9.20;;;6.10;1.00;;;;;;5051107;28;20413;-48
2022/09/21 05:31:24;;;;;;;18.43;9.80;;;6.10;1.00;;;;;;5048416;28;20479;-47
2022/09/21 05:33:53;;;;;;;26.37;9.90;;;6.20;1.00;;;;;;5031243;28;20441;-47
2022/09/21 05:36:50;;;;;;;18.77;9.63;;;6.10;1.00;;;;;;5048917;28;20440;-47
2022/09/21 05:39:16;;;;;;;25.40;10.23;;;6.10;1.00;;;;;;5051479;28;20455;-48
2022/09/21 05:41:42;;;;;;;29.00;10.80;;;6.20;1.00;;;;;;5052109;28;20903;-47
2022/09/21 05:44:13;;;;;;;18.27;11.17;;;6.20;1.00;;;;;;5050562;28;20194;-47
2022/09/21 05:46:41;;;;;;;14.60;10.10;;;6.20;1.00;;;;;;5050867;28;20173;-46
2022/09/21 05:49:23;;;;;;;16.77;9.97;;;6.20;1.00;;;;;;5051136;28;20465;-47
2022/09/21 05:52:23;;;;;;;23.90;12.30;;;6.30;1.00;;;;;;5050672;28;20464;-47
2022/09/21 05:55:14;;;;;;;22.07;12.57;;;6.40;1.00;;;;;;5050309;28;20419;-47
2022/09/21 05:57:59;;;;;;;27.33;12.63;;;6.40;1.00;;;;;;5057674;28;20906;-47
2022/09/21 06:00:28;;;;;;;23.43;11.53;;;6.50;1.00;;;;;;5060823;28;20443;-47
2022/09/21 06:03:21;;;;;;;22.47;12.60;;;6.50;1.00;;;;;;5037202;28;20432;-47
2022/09/21 06:05:47;;;;;;;29.73;12.80;;;6.60;1.00;;;;;;5030935;28;20410;-47
2022/09/21 06:08:12;;;;;;;25.67;13.70;;;6.70;1.00;;;;;;5036566;28;20816;-47
2022/09/21 06:10:38;;;;;;;26.03;13.27;;;6.80;1.00;;;;;;5050010;28;20241;-47
2022/09/21 06:13:04;;;;;;;24.10;13.10;;;6.80;1.00;;;;;;5042184;28;20524;-47
2022/09/21 06:15:29;;;;;;;29.50;14.73;;;6.80;1.00;;;;;;5064514;28;20189;-47
2022/09/21 06:17:56;;;;;;;29.63;14.53;;;6.90;1.00;;;;;;5070635;28;20169;-47
2022/09/21 06:20:23;;;;;;;27.10;14.23;;;7.00;1.00;;;;;;5070566;28;20249;-47
2022/09/21 06:22:49;;;;;;;36.17;15.40;;;7.00;1.00;;;;;;5050734;28;20518;-46
2022/09/21 06:25:15;;;;;;;19.93;13.37;;;7.10;1.00;;;;;;5050298;28;20571;-48
2022/09/21 06:27:40;;;;;;;23.40;14.30;;;7.20;1.00;;;;;;5044605;28;20277;-47
2022/09/21 06:30:06;;;;;;;26.80;13.73;;;7.20;1.00;;;;;;5050381;28;20283;-47
2022/09/21 06:32:32;;;;;;;24.33;14.70;;;7.40;1.00;;;;;;5043176;28;20206;-47
2022/09/21 06:34:57;;;;;;;27.07;14.20;;;7.50;1.00;;;;;;5037453;28;20915;-47
2022/09/21 06:37:23;;;;;;;23.47;13.50;;;7.60;1.00;;;;;;5040599;28;20523;-47
2022/09/21 06:39:48;;;;;;;26.63;15.53;;;7.70;1.00;;;;;;5052398;28;20646;-47
2022/09/21 06:42:14;;;;;;;27.60;14.10;;;7.80;1.00;;;;;;5053638;28;20203;-47
2022/09/21 06:44:39;;;;;;;21.33;13.80;;;7.80;1.00;;;;;;5062564;28;20189;-51
2022/09/21 06:47:05;;;;;;;22.83;13.80;;;7.90;1.00;;;;;;5046516;28;20201;-47
2022/09/21 06:49:31;;;;;;;24.50;12.93;;;8.00;1.00;;;;;;5059146;28;20648;-47
2022/09/21 06:51:57;;;;;;;32.70;16.90;;;8.10;1.00;;;;;;5060940;28;20217;-48
2022/09/21 06:54:23;;;;;;;32.53;17.93;;;8.20;1.00;;;;;;5057272;28;20272;-47
2022/09/21 06:56:49;;;;;;;34.80;17.97;;;8.30;1.00;;;;;;5044450;28;20192;-47
2022/09/21 06:59:14;;;;;;;33.13;18.67;;;8.50;1.00;;;;;;5053186;28;21166;-47
2022/09/21 07:01:40;;;;;;;43.70;19.63;;;8.80;1.00;;;;;;5062886;28;20194;-46
2022/09/21 07:04:08;;;;;;;40.63;20.50;;;9.20;1.00;;;;;;5059988;28;20655;-49
2022/09/21 07:06:33;;;;;;;32.60;19.97;;;9.80;1.00;;;;;;5058537;28;20193;-48
2022/09/21 07:09:01;;;;;;;30.60;16.80;;;10.50;1.00;;;;;;5057807;28;21191;-47
2022/09/21 07:11:27;;;;;;;27.30;15.60;;;11.10;1.00;;;;;;5057158;28;20209;-48
2022/09/21 07:13:52;;;;;;;28.83;15.27;;;11.80;1.00;;;;;;5057259;28;21245;-47
2022/09/21 07:16:18;;;;;;;22.83;13.63;;;12.40;1.00;;;;;;5057074;28;20170;-47
2022/09/21 07:18:44;;;;;;;23.80;12.30;;;13.00;99.90;;;;;;5056512;28;20159;-47
2022/09/21 07:21:10;;;;;;;15.60;10.77;;;13.60;99.90;;;;;;5044386;28;20186;-48
2022/09/21 07:23:36;;;;;;;14.70;10.20;;;14.20;99.90;;;;;;5042932;28;20209;-47
2022/09/21 07:26:10;;;;;;;18.03;10.97;;;14.70;1.00;;;;;;5037404;28;20469;-49
2022/09/21 07:28:36;;;;;;;16.13;9.30;;;15.10;99.90;;;;;;5038757;28;20567;-47
2022/09/21 07:31:13;;;;;;;17.80;9.90;;;15.70;1.00;;;;;;5037152;28;20492;-47
2022/09/21 07:33:40;;;;;;;13.80;9.40;;;16.10;1.00;;;;;;5036991;28;20229;-48
2022/09/21 07:36:09;;;;;;;18.70;8.90;;;16.50;99.90;;;;;;5037251;28;20406;-47
2022/09/21 07:38:44;;;;;;;16.07;9.57;;;16.80;1.00;;;;;;5044328;28;20413;-47
2022/09/21 07:41:11;;;;;;;14.70;8.93;;;17.10;1.00;;;;;;5076486;28;20407;-48
2022/09/21 07:43:40;;;;;;;25.03;9.60;;;17.40;1.00;;;;;;5062359;28;20540;-48
2022/09/21 07:46:08;;;;;;;17.60;8.63;;;17.70;1.00;;;;;;5055393;28;21101;-48
2022/09/21 07:48:33;;;;;;;23.07;8.87;;;18.00;1.00;;;;;;5042482;28;20460;-47
2022/09/21 07:51:08;;;;;;;17.60;8.40;;;18.40;1.00;;;;;;5042724;28;20452;-48
2022/09/21 07:53:39;;;;;;;18.47;8.80;;;18.60;1.00;;;;;;5053675;28;20197;-47
2022/09/21 07:56:07;;;;;;;20.33;8.90;;;18.80;1.00;;;;;;5051280;28;20444;-47
2022/09/21 08:01:18;;;;;;;18.70;9.43;;;19.00;1.00;;;;;;5052846;28;20850;-48
2022/09/21 08:03:47;;;;;;;18.00;10.60;;;19.10;1.00;;;;;;5051991;28;20440;-48
2022/09/21 08:06:12;;;;;;;21.40;11.63;;;19.50;1.00;;;;;;5050956;28;20202;-47
2022/09/21 08:08:39;;;;;;;24.60;11.67;;;19.70;1.00;;;;;;5054063;28;20435;-49
2022/09/21 08:11:06;;;;;;;29.17;13.10;;;19.80;1.00;;;;;;5048956;28;20278;-47
2022/09/21 08:13:32;;;;;;;19.60;8.50;;;19.80;1.00;;;;;;5058732;28;20427;-48
2022/09/21 08:16:01;;;;;;;12.50;6.83;;;20.10;1.00;;;;;;5060657;28;20451;-48
2022/09/21 08:18:28;;;;;;;12.90;6.60;;;20.30;1.00;;;;;;5053097;28;20186;-47
2022/09/21 08:20:59;;;;;;;21.20;9.10;;;20.60;1.00;;;;;;5050645;28;20452;-45
2022/09/21 08:23:27;;;;;;;17.10;7.03;;;20.80;1.00;;;;;;5050068;28;20476;-45
2022/09/21 08:25:59;;;;;;;13.13;5.50;;;20.70;1.00;;;;;;5067843;28;20502;-48
2022/09/21 08:28:25;;;;;;;12.30;5.27;;;21.00;1.00;;;;;;5050799;28;20440;-48
2022/09/21 08:30:50;;;;;;;7.00;3.70;;;21.30;1.00;;;;;;5045592;28;20469;-48
2022/09/21 08:33:16;;;;;;;14.13;5.73;;;21.40;1.00;;;;;;5049450;28;20439;-47
2022/09/21 08:35:41;;;;;;;11.03;4.90;;;21.40;1.00;;;;;;5052816;28;20197;-47
2022/09/21 08:38:07;;;;;;;10.53;4.80;;;21.40;1.00;;;;;;5052759;28;20722;-48
2022/09/21 08:40:34;;;;;;;8.10;4.40;;;21.30;1.00;;;;;;5052692;28;20190;-49
2022/09/21 08:43:06;;;;;;;5.33;4.03;;;21.10;1.00;;;;;;5052430;28;20296;-48
2022/09/21 08:45:36;;;;;;;8.77;3.90;;;21.30;1.00;;;;;;5052445;28;20425;-45
2022/09/21 08:48:09;;;;;;;10.80;4.40;;;21.40;1.00;;;;;;5063957;28;20427;-45
2022/09/21 08:50:54;;;;;;;8.40;4.70;;;21.30;1.00;;;;;;5073295;28;20459;-45
2022/09/21 08:53:37;;;;;;;7.70;4.70;;;21.30;1.00;;;;;;5073102;28;20893;-45
2022/09/21 08:56:03;;;;;;;6.53;3.93;;;21.10;1.00;;;;;;5055572;28;20439;-45
2022/09/21 08:58:31;;;;;;;5.57;3.00;;;21.00;1.00;;;;;;5052867;28;20429;-45
2022/09/21 09:01:28;;;;;;;5.30;3.50;;;20.90;1.00;;;;;;5052155;28;20428;-45
2022/09/21 09:04:23;;;;;;;8.20;3.40;;;20.60;1.00;;;;;;5052900;28;20396;-47
2022/09/21 09:07:20;;;;;;;7.20;2.93;;;20.10;1.00;;;;;;5053883;28;20436;-44
2022/09/21 09:10:01;;;;;;;7.87;2.93;;;19.70;1.00;;;;;;5068150;28;20451;-44
2022/09/21 09:12:37;;;;;;;4.00;2.40;;;19.20;1.00;;;;;;5056657;28;20526;-44
2022/09/21 09:15:24;;;;;;;4.57;3.07;;;18.70;1.00;;;;;;5052703;28;20408;-44
2022/09/21 09:18:27;;;;;;;7.40;3.00;;;18.20;1.00;;;;;;5052583;28;20410;-44
2022/09/21 09:20:58;;;;;;;5.47;2.40;;;17.60;1.00;;;;;;5052136;28;20997;-45
2022/09/21 09:23:36;;;;;;;8.40;3.07;;;17.40;1.00;;;;;;5052340;28;20433;-44
2022/09/21 09:26:10;;;;;;;13.70;3.27;;;17.20;1.00;;;;;;5052478;28;20836;-45
2022/09/21 09:28:52;;;;;;;4.57;2.30;;;17.10;1.00;;;;;;5051846;28;20464;-44
2022/09/21 09:31:27;;;;;;;6.87;2.60;;;17.00;1.00;;;;;;5051918;28;20444;-44
2022/09/21 09:34:06;;;;;;;5.73;1.80;;;16.80;1.00;;;;;;5052582;28;20766;-44
2022/09/21 09:36:33;;;;;;;2.20;2.00;;;16.50;1.00;;;;;;5052564;28;20394;-44
2022/09/21 09:39:09;;;;;;;3.53;2.10;;;16.30;1.00;;;;;;5060485;28;20423;-44
2022/09/21 09:41:49;;;;;;;5.37;2.20;;;16.30;1.00;;;;;;5052426;28;20449;-44
2022/09/21 09:44:37;;;;;;;2.70;1.57;;;16.40;1.00;;;;;;5052325;28;20491;-46
2022/09/21 09:47:40;;;;;;;6.80;1.97;;;16.30;1.00;;;;;;5048196;28;20458;-45
2022/09/21 09:50:28;;;;;;;7.33;2.07;;;16.20;1.00;;;;;;5052609;28;20937;-45
2022/09/21 09:53:03;;;;;;;5.27;1.70;;;16.10;1.00;;;;;;5064736;28;20795;-45
2022/09/21 09:55:38;;;;;;;4.33;1.73;;;16.20;1.00;;;;;;5071040;28;20452;-45
2022/09/21 09:58:10;;;;;;;5.90;1.67;;;16.20;1.00;;;;;;5046302;28;20435;-44
2022/09/21 10:00:38;;;;;;;2.90;1.73;;;16.30;1.00;;;;;;5062611;28;20874;-44
2022/09/21 10:03:15;;;;;;;4.90;1.40;;;16.50;1.00;;;;;;5057679;28;20447;-47
2022/09/21 10:05:41;;;;;;;6.70;1.63;;;16.70;1.00;;;;;;5062730;28;20453;-47
2022/09/21 10:08:35;;;;;;;2.20;1.87;;;16.90;1.00;;;;;;5063062;28;20417;-47
2022/09/21 10:11:02;;;;;;;4.77;1.90;;;17.00;1.00;;;;;;5043987;28;20320;-47
2022/09/21 10:13:30;;;;;;;3.40;1.80;;;16.90;1.00;;;;;;5055633;28;20443;-48
2022/09/21 10:15:58;;;;;;;5.07;2.00;;;17.20;1.00;;;;;;5055046;28;20497;-47
2022/09/21 10:18:33;;;;;;;3.63;1.43;;;17.50;1.00;;;;;;5048431;28;20436;-47
2022/09/21 10:21:08;;;;;;;3.17;1.40;;;18.00;1.00;;;;;;5040343;28;20945;-46
2022/09/21 10:23:36;;;;;;;1.97;1.77;;;18.40;1.00;;;;;;5054216;28;20453;-47
2022/09/21 10:26:09;;;;;;;4.40;1.70;;;18.70;1.00;;;;;;5067026;28;20826;-47
2022/09/21 10:28:36;;;;;;;5.83;1.73;;;19.10;1.00;;;;;;5060529;28;20753;-47
2022/09/21 10:31:17;;;;;;;2.60;1.70;;;19.40;1.00;;;;;;5050203;28;20465;-47
2022/09/21 10:34:04;;;;;;;3.57;2.10;;;19.60;1.00;;;;;;5066513;28;20408;-46
2022/09/21 10:36:34;;;;;;;2.43;1.77;;;19.70;1.00;;;;;;5051561;28;20436;-47
2022/09/21 10:39:32;;;;;;;5.57;2.00;;;20.40;1.00;;;;;;5067579;28;20436;-44
2022/09/21 10:42:03;;;;;;;2.30;1.40;;;21.20;99.90;;;;;;5039074;28;20519;-44
2022/09/21 10:44:37;;;;;;;3.10;1.70;;;21.40;99.90;;;;;;5069613;28;20447;-44
2022/09/21 10:47:17;;;;;;;1.97;1.40;;;21.20;99.90;;;;;;5058507;28;20416;-45
2022/09/21 10:49:49;;;;;;;3.83;1.43;;;21.00;99.90;;;;;;5071908;28;20430;-44
2022/09/21 10:52:19;;;;;;;1.97;1.67;;;21.30;99.90;;;;;;5064594;28;20485;-44
2022/09/21 10:54:50;;;;;;;3.57;1.30;;;21.60;99.90;;;;;;5067844;28;20404;-44
2022/09/21 10:57:19;;;;;;;1.37;1.20;;;21.00;99.90;;;;;;5047971;28;20443;-44
2022/09/21 10:59:45;;;;;;;3.37;1.30;;;20.10;99.90;;;;;;5060500;28;20413;-44
2022/09/21 11:02:24;;;;;;;3.13;1.27;;;19.20;99.90;;;;;;5066229;28;20759;-46
2022/09/21 11:04:55;;;;;;;2.30;1.60;;;18.30;99.90;;;;;;5034480;28;21010;-44
2022/09/21 11:07:43;;;;;;;1.43;1.23;;;17.70;99.90;;;;;;5048626;28;20467;-44
2022/09/21 11:10:37;;;;;;;3.73;1.30;;;17.20;99.90;;;;;;5048830;28;21304;-44
2022/09/21 11:13:34;;;;;;;1.93;1.40;;;18.10;99.90;;;;;;5039357;28;20442;-44
2022/09/21 11:16:26;;;;;;;2.30;1.40;;;20.20;99.90;;;;;;5039073;28;20440;-44
2022/09/21 11:19:23;;;;;;;1.50;1.10;;;22.20;99.90;;;;;;5042598;28;20432;-45
2022/09/21 11:22:05;;;;;;;1.87;1.30;;;23.70;99.90;;;;;;5039537;28;22418;-44
2022/09/21 11:24:39;;;;;;;1.50;1.37;;;24.90;99.90;;;;;;5047434;28;20447;-43
2022/09/21 11:27:19;;;;;;;2.83;1.30;;;25.50;99.90;;;;;;5044790;28;20960;-44
2022/09/21 11:30:08;;;;;;;1.40;1.30;;;25.90;99.90;;;;;;5048563;28;20441;-44
2022/09/21 11:33:11;;;;;;;1.20;1.10;;;25.90;99.90;;;;;;5040943;28;20569;-44
2022/09/21 11:35:46;;;;;;;3.97;1.33;;;26.10;99.90;;;;;;5040405;28;20432;-45
2022/09/21 11:38:21;;;;;;;1.97;1.30;;;26.10;99.90;;;;;;5040234;28;20443;-45
2022/09/21 11:40:55;;;;;;;2.27;1.80;;;26.30;99.90;;;;;;5042405;28;20494;-45
2022/09/21 11:43:21;;;;;;;3.83;1.90;;;26.60;99.90;;;;;;5041314;28;20441;-45
2022/09/21 11:45:56;;;;;;;1.93;1.73;;;26.50;99.90;;;;;;5041311;28;20446;-44
2022/09/21 11:48:53;;;;;;;2.63;2.10;;;26.70;99.90;;;;;;5049890;28;20209;-45
2022/09/21 11:51:23;;;;;;;3.30;1.77;;;27.00;99.90;;;;;;5037636;28;20483;-45
2022/09/21 11:54:16;;;;;;;2.10;1.90;;;27.00;99.90;;;;;;5052316;28;20444;-45
2022/09/21 11:56:53;;;;;;;3.03;1.80;;;27.30;99.90;;;;;;5046071;28;20441;-45
2022/09/21 11:59:25;;;;;;;2.40;1.90;;;27.20;99.90;;;;;;5056703;28;20502;-47
2022/09/21 12:02:15;;;;;;;4.37;2.07;;;27.20;99.90;;;;;;5057176;28;20458;-45
2022/09/21 12:04:44;;;;;;;4.03;1.50;;;27.50;99.90;;;;;;5037016;28;20425;-45
2022/09/21 12:07:19;;;;;;;1.90;1.80;;;27.70;99.90;;;;;;5049447;28;20433;-45
2022/09/21 12:10:10;;;;;;;3.40;2.00;;;27.70;99.90;;;;;;5045833;28;20435;-45
2022/09/21 12:12:39;;;;;;;1.80;1.70;;;27.50;99.90;;;;;;5051639;28;20496;-45
2022/09/21 12:15:23;;;;;;;2.23;1.63;;;27.70;99.90;;;;;;5053297;28;20445;-45
2022/09/21 12:18:21;;;;;;;3.53;2.20;;;27.90;99.90;;;;;;5052304;28;20409;-45
2022/09/21 12:21:18;;;;;;;2.20;1.60;;;27.80;99.90;;;;;;5052526;28;20490;-47
2022/09/21 12:24:04;;;;;;;3.73;1.63;;;27.60;99.90;;;;;;5044600;28;20898;-49
2022/09/21 12:26:43;;;;;;;4.30;1.97;;;27.60;99.90;;;;;;5051947;28;20526;-48
2022/09/21 12:29:24;;;;;;;2.30;1.80;;;27.90;99.90;;;;;;5046222;28;20443;-48
2022/09/21 12:32:24;;;;;;;2.77;1.77;;;28.10;99.90;;;;;;5045176;28;20455;-47
2022/09/21 12:34:56;;;;;;;3.13;1.90;;;27.80;99.90;;;;;;5037577;28;20519;-45
2022/09/21 12:37:39;;;;;;;2.27;1.77;;;27.80;99.90;;;;;;5050236;28;20775;-45
2022/09/21 12:40:27;;;;;;;5.23;2.03;;;27.70;99.90;;;;;;5050402;28;20460;-45
2022/09/21 12:43:07;;;;;;;2.47;1.63;;;27.40;99.90;;;;;;5045223;28;20438;-45
2022/09/21 12:45:41;;;;;;;2.73;1.40;;;27.40;99.90;;;;;;5049103;28;20440;-45
2022/09/21 12:48:23;;;;;;;3.10;1.67;;;27.50;99.90;;;;;;5050274;28;20436;-45
2022/09/21 12:50:56;;;;;;;5.47;1.70;;;27.40;99.90;;;;;;5039991;28;20464;-45
2022/09/21 12:53:26;;;;;;;1.80;1.70;;;27.40;99.90;;;;;;5039198;28;20438;-45
2022/09/21 12:56:10;;;;;;;2.93;1.40;;;27.40;99.90;;;;;;5050277;28;20472;-45
2022/09/21 12:58:45;;;;;;;2.87;1.67;;;27.30;99.90;;;;;;5042227;28;20491;-45
2022/09/21 13:01:25;;;;;;;2.80;1.20;;;27.20;99.90;;;;;;5054788;28;20417;-45
2022/09/21 13:04:21;;;;;;;2.63;1.67;;;27.10;99.90;;;;;;5052517;28;20802;-45
2022/09/21 13:07:08;;;;;;;1.70;1.60;;;27.20;99.90;;;;;;5057240;28;20446;-45
2022/09/21 13:09:41;;;;;;;2.37;1.50;;;27.10;99.90;;;;;;5051237;28;21063;-45
2022/09/21 13:12:19;;;;;;;3.07;1.93;;;26.90;99.90;;;;;;5056806;28;20469;-48
2022/09/21 13:14:51;;;;;;;2.47;1.97;;;26.60;99.90;;;;;;5051346;28;20463;-48
2022/09/21 13:17:22;;;;;;;2.37;1.80;;;26.20;99.90;;;;;;5051431;28;20435;-49
2022/09/21 13:19:59;;;;;;;2.87;1.83;;;26.30;99.90;;;;;;5050285;28;20444;-49
2022/09/21 13:22:29;;;;;;;4.70;1.70;;;26.70;99.90;;;;;;5051341;28;20888;-49
2022/09/21 13:25:13;;;;;;;2.80;1.63;;;26.90;99.90;;;;;;5051143;28;20511;-48
2022/09/21 13:28:15;;;;;;;1.87;1.53;;;27.10;99.90;;;;;;5050255;28;20436;-46